Time;durP1;ratioP1;P1;durP2;ratioP2;P2;SDS_P1;SDS_P2;PMS_P1;PMS_P2;Temp;Humidity;BMP_temperature;BMP_pressure;BME280_temperature;BME280_humidity;BME280_pressure;Samples;Min_cycle;Max_cycle;Signal;HPM_P1;HPM_P2
2021/09/09 00:00:27;;;;;;;55.35;39.28;;;;;;;26.77;49.20;100617.22;5074973;28;20031;-74
2021/09/09 00:02:53;;;;;;;63.63;38.03;;;;;;;26.81;49.20;100613.13;5074980;28;20021;-75
2021/09/09 00:05:18;;;;;;;57.88;34.50;;;;;;;26.84;49.15;100617.09;5074956;28;20104;-75
2021/09/09 00:07:44;;;;;;;54.20;35.60;;;;;;;26.83;49.23;100619.13;5074789;28;20028;-75
2021/09/09 00:10:10;;;;;;;69.55;37.83;;;;;;;26.71;49.45;100619.72;5075043;28;20437;-75
2021/09/09 00:12:35;;;;;;;59.25;36.38;;;;;;;26.79;49.15;100620.38;5074693;28;20020;-75
2021/09/09 00:15:01;;;;;;;56.28;35.50;;;;;;;26.79;49.42;100617.59;5074699;28;20021;-75
2021/09/09 00:17:27;;;;;;;57.35;35.55;;;;;;;26.83;49.28;100619.13;5074937;28;20021;-75
2021/09/09 00:19:52;;;;;;;51.17;35.08;;;;;;;26.91;49.13;100619.00;5074652;28;20048;-75
2021/09/09 00:22:18;;;;;;;55.08;35.40;;;;;;;26.90;49.10;100617.38;5074589;28;20390;-75
2021/09/09 00:24:44;;;;;;;65.18;38.50;;;;;;;26.92;48.93;100612.16;5074646;28;20028;-75
2021/09/09 00:27:09;;;;;;;77.15;38.33;;;;;;;27.01;48.79;100607.56;5074370;28;20025;-74
2021/09/09 00:29:35;;;;;;;54.78;36.00;;;;;;;27.02;48.83;100617.56;5074467;28;20020;-75
2021/09/09 00:32:00;;;;;;;61.35;34.63;;;;;;;26.97;48.87;100614.44;5074353;28;20036;-75
2021/09/09 00:34:26;;;;;;;64.15;37.28;;;;;;;26.91;49.03;100608.56;5074276;28;20028;-74
2021/09/09 00:36:51;;;;;;;65.07;39.15;;;;;;;26.91;49.01;100613.38;5074261;28;20036;-75
2021/09/09 00:39:17;;;;;;;62.08;37.97;;;;;;;26.95;48.76;100617.69;5074124;28;20052;-75
2021/09/09 00:41:43;;;;;;;62.70;40.47;;;;;;;26.94;49.04;100607.69;5074432;28;20027;-74
2021/09/09 00:44:26;;;;;;;63.95;41.22;;;;;;;26.95;49.11;100614.09;5074017;28;20028;-74
2021/09/09 00:47:06;;;;;;;66.70;40.60;;;;;;;26.88;49.05;100609.41;5074126;28;20498;-74
2021/09/09 00:49:32;;;;;;;;;;;;;;;26.94;48.82;100609.72;5074518;28;20025;-74
2021/09/09 00:51:58;;;;;;;62.45;36.25;;;;;;;26.91;48.94;100600.16;5073692;28;19913;-74
2021/09/09 00:54:23;;;;;;;68.63;41.17;;;;;;;26.88;49.25;100609.41;5073636;28;20078;-74
2021/09/09 00:56:50;;;;;;;65.30;40.90;;;;;;;26.89;49.21;100605.38;5073998;28;20082;-75
2021/09/09 00:59:17;;;;;;;62.38;38.72;;;;;;;26.88;49.21;100600.22;5073988;28;20098;-74
2021/09/09 01:01:43;;;;;;;59.35;40.53;;;;;;;26.92;49.14;100600.94;5073810;28;20022;-75
2021/09/09 01:04:08;;;;;;;69.43;42.50;;;;;;;26.95;49.25;100592.47;5073706;28;20445;-74
2021/09/09 01:06:34;;;;;;;72.57;42.47;;;;;;;26.96;49.34;100590.44;5073493;28;20036;-74
2021/09/09 01:09:03;;;;;;;72.78;42.05;;;;;;;26.92;49.49;100587.72;5073658;28;20029;-74
2021/09/09 01:11:28;;;;;;;65.35;42.35;;;;;;;26.91;49.51;100582.56;5073818;28;20403;-74
2021/09/09 01:14:07;;;;;;;66.32;40.90;;;;;;;26.94;49.53;100576.06;5073476;28;20024;-74
2021/09/09 01:16:35;;;;;;;66.10;39.85;;;;;;;26.94;49.46;100582.47;5073559;28;20063;-75
2021/09/09 01:19:01;;;;;;;67.25;41.65;;;;;;;26.95;49.37;100588.88;5073256;28;20047;-74
2021/09/09 01:21:27;;;;;;;67.05;40.25;;;;;;;26.92;49.31;100582.13;5073647;28;20017;-74
2021/09/09 01:23:57;;;;;;;69.95;42.67;;;;;;;26.89;49.60;100596.97;5073327;28;20501;-75
2021/09/09 01:26:24;;;;;;;;;;;;;;;26.93;49.48;100585.72;5073761;28;20035;-75
2021/09/09 01:28:49;;;;;;;69.90;42.15;;;;;;;26.94;49.10;100585.28;5073266;28;19913;-74
2021/09/09 01:31:16;;;;;;;72.18;42.28;;;;;;;26.89;49.36;100576.56;5073198;28;20073;-74
2021/09/09 01:33:42;;;;;;;76.00;46.97;;;;;;;26.91;49.24;100576.94;5073103;28;20024;-75
2021/09/09 01:36:08;;;;;;;64.68;41.10;;;;;;;26.72;50.18;100581.28;5073029;28;20021;-75
2021/09/09 01:38:34;;;;;;;65.10;36.25;;;;;;;26.85;49.65;100565.41;5072791;28;20028;-75
2021/09/09 01:41:00;;;;;;;58.95;37.22;;;;;;;26.85;49.54;100568.22;5073052;28;20020;-75
2021/09/09 01:43:25;;;;;;;59.20;36.50;;;;;;;26.89;49.31;100563.34;5072932;28;20475;-75
2021/09/09 01:45:51;;;;;;;59.65;38.22;;;;;;;26.89;49.56;100559.75;5054969;28;20035;-76
2021/09/09 01:48:17;;;;;;;62.13;39.42;;;;;;;26.93;49.25;100558.47;5072917;28;20031;-75
2021/09/09 01:50:42;;;;;;;50.75;34.15;;;;;;;26.95;49.31;100556.00;5073034;28;20029;-75
2021/09/09 01:53:08;;;;;;;59.00;35.47;;;;;;;26.97;49.23;100555.56;5073056;28;20444;-76
2021/09/09 01:55:34;;;;;;;57.15;36.78;;;;;;;26.88;49.77;100550.53;5072903;28;20111;-76
2021/09/09 01:58:00;;;;;;;65.57;39.13;;;;;;;26.86;49.80;100541.00;5072883;28;20032;-75
2021/09/09 02:00:25;;;;;;;56.88;38.25;;;;;;;26.86;50.07;100552.19;5072885;28;20034;-75
2021/09/09 02:02:51;;;;;;;53.83;34.35;;;;;;;26.75;50.07;100544.78;5072540;28;20479;-75
2021/09/09 02:05:16;;;;;;;62.42;35.75;;;;;;;26.80;50.08;100543.50;5072328;28;20478;-75
2021/09/09 02:07:42;;;;;;;64.32;37.20;;;;;;;26.84;49.83;100541.41;5072664;28;20074;-75
2021/09/09 02:10:08;;;;;;;62.97;39.17;;;;;;;26.89;49.70;100537.31;5072663;28;20024;-75
2021/09/09 02:12:34;;;;;;;65.53;41.15;;;;;;;26.76;50.23;100526.75;5072570;28;20154;-75
2021/09/09 02:15:01;;;;;;;59.67;38.65;;;;;;;26.83;50.12;100532.22;5072551;28;20536;-75
2021/09/09 02:17:26;;;;;;;66.32;43.70;;;;;;;26.81;50.03;100537.44;5072551;28;20032;-75
2021/09/09 02:19:52;;;;;;;78.05;44.00;;;;;;;26.84;49.91;100533.00;5072525;28;20463;-74
2021/09/09 02:22:18;;;;;;;81.70;48.97;;;;;;;26.89;49.78;100532.50;5072464;28;20036;-75
2021/09/09 02:24:47;;;;;;;71.20;44.70;;;;;;;26.91;49.93;100537.69;5072618;28;20436;-75
2021/09/09 02:27:17;;;;;;;70.60;39.97;;;;;;;26.93;49.80;100530.44;5072553;28;20107;-74
2021/09/09 02:29:43;;;;;;;66.65;41.08;;;;;;;26.95;49.79;100532.78;5054716;28;20517;-75
2021/09/09 02:32:08;;;;;;;73.18;45.25;;;;;;;26.89;49.77;100524.09;5072730;28;20383;-74
2021/09/09 02:34:34;;;;;;;82.05;46.58;;;;;;;26.90;49.88;100516.47;5072289;28;20024;-75
2021/09/09 02:37:00;;;;;;;74.55;45.50;;;;;;;26.87;49.76;100518.13;5072341;28;20119;-75
2021/09/09 02:39:25;;;;;;;76.63;43.13;;;;;;;26.92;49.76;100523.25;5072318;28;20049;-75
2021/09/09 02:41:51;;;;;;;80.85;45.50;;;;;;;26.92;49.98;100514.84;5072317;28;20029;-75
2021/09/09 02:44:17;;;;;;;81.28;43.03;;;;;;;26.92;49.85;100516.84;5072333;28;20035;-75
2021/09/09 02:46:42;;;;;;;80.60;43.03;;;;;;;26.91;49.63;100507.66;5072401;28;20409;-75
2021/09/09 02:49:08;;;;;;;59.83;37.80;;;;;;;26.92;49.83;100514.03;5072298;28;20483;-75
2021/09/09 02:51:34;;;;;;;60.97;39.45;;;;;;;26.94;49.74;100503.97;5072248;28;20025;-75
2021/09/09 02:53:59;;;;;;;76.10;41.60;;;;;;;26.94;49.69;100509.56;5072217;28;20028;-75
2021/09/09 02:56:25;;;;;;;76.05;42.78;;;;;;;26.96;49.71;100504.31;5072434;28;20107;-74
2021/09/09 02:58:51;;;;;;;68.22;42.63;;;;;;;26.93;49.63;100504.41;5072177;28;20024;-74
2021/09/09 03:01:16;;;;;;;71.28;40.03;;;;;;;26.93;49.76;100507.22;5072096;28;20033;-75
2021/09/09 03:03:42;;;;;;;69.30;44.30;;;;;;;26.95;49.75;100501.97;5069946;28;20479;-75
2021/09/09 03:06:07;;;;;;;70.43;39.15;;;;;;;26.90;49.90;100497.63;5071557;28;20020;-75
2021/09/09 03:08:33;;;;;;;62.22;39.53;;;;;;;26.94;49.79;100501.16;5071639;28;20104;-75
2021/09/09 03:11:00;;;;;;;74.38;44.03;;;;;;;26.96;49.76;100493.09;5071704;28;20013;-75
2021/09/09 03:13:26;;;;;;;66.90;41.95;;;;;;;26.94;49.68;100492.75;5071565;28;20062;-75
2021/09/09 03:15:51;;;;;;;84.80;46.92;;;;;;;26.96;49.53;100495.91;5074203;28;20025;-75
2021/09/09 03:18:17;;;;;;;76.55;47.22;;;;;;;26.98;49.61;100495.47;5057374;28;20028;-75
2021/09/09 03:20:42;;;;;;;82.90;44.90;;;;;;;26.90;49.89;100492.03;5075299;28;20028;-75
2021/09/09 03:23:08;;;;;;;81.38;41.70;;;;;;;26.85;49.93;100489.75;5075266;28;20031;-75
2021/09/09 03:25:34;;;;;;;79.20;42.80;;;;;;;26.89;49.85;100487.66;5057226;28;20073;-75
2021/09/09 03:27:59;;;;;;;66.97;38.53;;;;;;;26.92;49.68;100494.41;5075156;28;20471;-75
2021/09/09 03:30:25;;;;;;;69.32;37.15;;;;;;;27.01;49.75;100481.41;5075153;28;20521;-75
2021/09/09 03:32:50;;;;;;;77.82;39.67;;;;;;;26.92;49.66;100483.22;5075044;28;20073;-75
2021/09/09 03:35:16;;;;;;;59.83;36.55;;;;;;;26.89;49.97;100475.63;5075034;28;20396;-78
2021/09/09 03:37:42;;;;;;;62.38;37.72;;;;;;;26.87;50.09;100476.06;5057057;28;20486;-75
2021/09/09 03:40:08;;;;;;;58.17;39.28;;;;;;;26.90;49.82;100477.22;5074524;28;20379;-75
2021/09/09 03:42:33;;;;;;;54.78;34.72;;;;;;;26.93;49.67;100477.16;5054917;28;20386;-75
2021/09/09 03:44:59;;;;;;;56.85;35.40;;;;;;;26.92;49.76;100469.19;5056901;28;20017;-75
2021/09/09 03:47:24;;;;;;;62.10;36.42;;;;;;;26.91;49.73;100468.41;5074726;28;20017;-75
2021/09/09 03:49:50;;;;;;;50.50;32.67;;;;;;;26.94;49.91;100473.13;5074857;28;20024;-75
2021/09/09 03:52:16;;;;;;;69.05;36.55;;;;;;;26.95;49.79;100471.13;5074575;28;20078;-75
2021/09/09 03:54:41;;;;;;;68.95;36.80;;;;;;;26.93;49.72;100470.75;5071980;28;20029;-75
2021/09/09 03:57:07;;;;;;;66.53;36.65;;;;;;;26.94;49.81;100469.53;5074808;28;20044;-75
2021/09/09 03:59:33;;;;;;;68.85;36.22;;;;;;;26.89;49.97;100467.22;5056609;28;20019;-75
2021/09/09 04:02:02;;;;;;;63.03;37.78;;;;;;;26.93;49.75;100467.97;5074424;28;20078;-75
2021/09/09 04:04:27;;;;;;;57.10;33.10;;;;;;;26.87;50.01;100464.06;5074364;28;20062;-75
2021/09/09 04:06:53;;;;;;;67.40;36.03;;;;;;;26.91;49.61;100462.00;5074463;28;20413;-75
2021/09/09 04:09:18;;;;;;;60.80;36.70;;;;;;;26.87;49.82;100464.06;5074313;28;20194;-75
2021/09/09 04:11:44;;;;;;;56.55;33.17;;;;;;;26.80;50.01;100460.19;5074445;28;20020;-75
2021/09/09 04:14:11;;;;;;;58.00;35.55;;;;;;;26.82;49.85;100456.94;5074307;28;20032;-75
2021/09/09 04:16:37;;;;;;;70.78;35.50;;;;;;;26.86;49.85;100456.91;5074427;28;20418;-74
2021/09/09 04:19:02;;;;;;;65.53;36.38;;;;;;;26.86;49.98;100457.69;5074448;28;20027;-75
2021/09/09 04:21:28;;;;;;;58.45;35.65;;;;;;;26.84;49.95;100451.72;5074336;28;20414;-74
2021/09/09 04:23:54;;;;;;;61.03;34.35;;;;;;;26.84;49.89;100443.31;5074350;28;20031;-75
2021/09/09 04:26:20;;;;;;;57.58;33.25;;;;;;;26.83;49.93;100445.34;5073519;28;20407;-75
2021/09/09 04:28:46;;;;;;;68.07;39.13;;;;;;;26.86;49.85;100443.66;5074002;28;20471;-75
2021/09/09 04:31:11;;;;;;;56.78;38.33;;;;;;;26.87;49.95;100439.63;5074081;28;20028;-76
2021/09/09 04:33:37;;;;;;;74.55;37.63;;;;;;;26.77;50.08;100438.63;5073803;28;20081;-75
2021/09/09 04:36:03;;;;;;;62.67;37.78;;;;;;;26.78;49.77;100433.81;5073008;28;20032;-75
2021/09/09 04:38:28;;;;;;;89.45;43.58;;;;;;;26.75;49.79;100438.28;5072486;28;20020;-76
2021/09/09 04:40:54;;;;;;;76.82;49.60;;;;;;;26.71;50.05;100429.16;5072307;28;20049;-75
2021/09/09 04:43:19;;;;;;;50.97;36.75;;;;;;;26.75;49.59;100431.88;5073497;28;20025;-75
2021/09/09 04:45:45;;;;;;;66.30;34.92;;;;;;;26.68;49.99;100432.03;5074082;28;20028;-75
2021/09/09 04:48:11;;;;;;;58.67;35.75;;;;;;;26.67;49.93;100422.81;5073982;28;20462;-75
2021/09/09 04:50:36;;;;;;;62.80;38.05;;;;;;;26.72;49.87;100425.13;5074330;28;20059;-75
2021/09/09 04:53:02;;;;;;;68.35;38.28;;;;;;;26.64;50.17;100429.28;5073979;28;20490;-75
2021/09/09 04:55:28;;;;;;;64.63;36.10;;;;;;;26.64;50.05;100425.69;5073969;28;20028;-75
2021/09/09 04:57:53;;;;;;;55.88;34.28;;;;;;;26.64;50.16;100418.09;5073911;28;20029;-75
2021/09/09 05:00:19;;;;;;;67.28;38.33;;;;;;;26.60;50.18;100419.34;5073829;28;20529;-75
2021/09/09 05:02:44;;;;;;;63.88;36.78;;;;;;;26.65;50.15;100421.66;5073833;28;20062;-75
2021/09/09 05:05:10;;;;;;;68.38;40.72;;;;;;;26.59;50.27;100417.78;5073728;28;20111;-75
2021/09/09 05:07:36;;;;;;;70.97;39.00;;;;;;;26.59;50.51;100414.97;5073729;28;20071;-75
2021/09/09 05:10:03;;;;;;;65.45;36.60;;;;;;;26.57;50.29;100423.03;5073668;28;20100;-75
2021/09/09 05:12:29;;;;;;;69.88;38.08;;;;;;;26.61;50.42;100423.78;5073632;28;20025;-76
2021/09/09 05:14:55;;;;;;;86.38;43.95;;;;;;;26.66;50.16;100418.44;5073473;28;20511;-76
2021/09/09 05:17:20;;;;;;;65.82;38.97;;;;;;;26.64;50.35;100429.28;5073849;28;20032;-76
2021/09/09 05:19:46;;;;;;;68.57;38.70;;;;;;;26.63;50.34;100410.13;5073516;28;20107;-75
2021/09/09 05:22:11;;;;;;;63.22;45.15;;;;;;;26.66;50.22;100414.84;5073419;28;20059;-75
2021/09/09 05:24:37;;;;;;;57.28;35.90;;;;;;;26.64;50.41;100423.69;5073306;28;20052;-76
2021/09/09 05:27:03;;;;;;;69.85;45.40;;;;;;;26.68;50.11;100418.81;5073283;28;20082;-75
2021/09/09 05:29:29;;;;;;;54.83;35.67;;;;;;;26.71;50.41;100431.94;5073341;28;20035;-75
2021/09/09 05:31:54;;;;;;;62.75;37.83;;;;;;;26.68;50.61;100429.22;5073252;28;20039;-75
2021/09/09 05:34:20;;;;;;;73.28;45.28;;;;;;;26.67;50.40;100428.41;5073071;28;20383;-76
2021/09/09 05:36:45;;;;;;;65.93;38.30;;;;;;;26.71;50.53;100428.38;5073296;28;20430;-75
2021/09/09 05:39:11;;;;;;;63.53;36.38;;;;;;;26.70;50.43;100430.38;5072200;28;20071;-75
2021/09/09 05:41:37;;;;;;;66.22;38.47;;;;;;;26.77;50.38;100429.44;5073061;28;20027;-75
2021/09/09 05:44:03;;;;;;;77.90;39.80;;;;;;;26.74;50.39;100430.28;5073411;28;20082;-75
2021/09/09 05:46:28;;;;;;;69.10;40.42;;;;;;;26.71;50.49;100431.16;5073402;28;20415;-75
2021/09/09 05:48:54;;;;;;;70.47;39.88;;;;;;;26.74;50.46;100433.09;5072914;28;20035;-75
2021/09/09 05:51:19;;;;;;;71.82;38.85;;;;;;;26.71;50.93;100433.97;5072825;28;20104;-75
2021/09/09 05:53:45;;;;;;;76.78;41.05;;;;;;;26.69;50.82;100430.81;5072845;28;20028;-75
2021/09/09 05:56:11;;;;;;;72.82;39.90;;;;;;;26.71;50.98;100436.78;5072821;28;20360;-75
2021/09/09 05:58:38;;;;;;;60.35;36.50;;;;;;;26.71;50.79;100433.97;5072825;28;20032;-75
2021/09/09 06:01:04;;;;;;;68.07;39.22;;;;;;;26.77;50.64;100438.63;5072735;28;20028;-75
2021/09/09 06:03:31;;;;;;;69.90;37.15;;;;;;;26.69;50.82;100442.03;5072561;28;20056;-76
2021/09/09 06:06:03;;;;;;;66.80;41.35;;;;;;;26.67;50.86;100436.81;5072631;28;20135;-75
2021/09/09 06:08:35;;;;;;;62.03;36.28;;;;;;;26.76;50.77;100428.66;5070080;28;20025;-76
2021/09/09 06:11:00;;;;;;;66.43;39.92;;;;;;;26.72;50.80;100435.53;5070478;28;20027;-75
2021/09/09 06:13:26;;;;;;;71.18;40.35;;;;;;;26.74;50.71;100433.88;5072528;28;20021;-76
2021/09/09 06:15:52;;;;;;;67.35;37.92;;;;;;;26.76;50.74;100437.06;5071924;28;20106;-75
2021/09/09 06:18:19;;;;;;;69.93;43.15;;;;;;;26.83;50.81;100433.34;5072522;28;20016;-75
2021/09/09 06:20:45;;;;;;;68.35;36.10;;;;;;;26.86;50.57;100431.66;5072280;28;20017;-75
2021/09/09 06:23:11;;;;;;;66.75;36.45;;;;;;;26.85;50.67;100430.88;5072492;28;20122;-76
2021/09/09 06:25:37;;;;;;;77.28;38.60;;;;;;;26.80;50.85;100434.97;5064033;28;20047;-76
2021/09/09 06:28:03;;;;;;;62.95;37.92;;;;;;;26.76;50.56;100434.25;5055917;28;20031;-76
2021/09/09 06:30:28;;;;;;;72.57;35.05;;;;;;;26.86;51.00;100426.84;5056428;28;20023;-76
2021/09/09 06:32:54;;;;;;;65.28;33.35;;;;;;;26.83;50.92;100439.72;5056742;28;20395;-77
2021/09/09 06:35:19;;;;;;;65.38;34.08;;;;;;;26.88;50.95;100430.00;5056084;28;20067;-75
2021/09/09 06:37:46;;;;;;;61.42;34.83;;;;;;;26.87;51.15;100436.03;5056805;28;20070;-76
2021/09/09 06:40:11;;;;;;;64.55;33.25;;;;;;;26.81;51.48;100432.94;5057671;28;20090;-76
2021/09/09 06:42:39;;;;;;;87.85;39.22;;;;;;;26.82;51.17;100437.31;5054673;28;20479;-77
2021/09/09 06:45:06;;;;;;;99.97;41.08;;;;;;;26.81;51.13;100438.56;5055568;28;20107;-75
2021/09/09 06:47:31;;;;;;;136.65;43.22;;;;;;;26.87;50.91;100431.22;5055566;28;20116;-77
2021/09/09 06:49:57;;;;;;;111.35;40.90;;;;;;;26.82;50.85;100429.72;5057008;28;20111;-75
2021/09/09 06:52:23;;;;;;;140.07;40.90;;;;;;;26.79;50.93;100436.19;5060183;28;20016;-76
2021/09/09 06:54:48;;;;;;;120.80;38.70;;;;;;;26.76;51.13;100434.25;5059861;28;20479;-75
2021/09/09 06:57:14;;;;;;;122.80;39.05;;;;;;;26.77;51.22;100426.63;5059465;28;20033;-79
2021/09/09 06:59:40;;;;;;;104.72;38.88;;;;;;;26.67;51.30;100436.03;5059852;28;20020;-75
2021/09/09 07:02:05;;;;;;;101.70;33.92;;;;;;;26.64;51.34;100434.09;5059278;28;20043;-74
2021/09/09 07:04:31;;;;;;;121.70;35.63;;;;;;;26.67;51.18;100436.03;5059262;28;20081;-75
2021/09/09 07:06:56;;;;;;;139.27;31.95;;;;;;;26.71;51.04;100433.97;5060499;28;20065;-75
2021/09/09 07:09:22;;;;;;;89.32;29.25;;;;;;;26.70;51.19;100435.19;5060039;28;20024;-73
2021/09/09 07:11:47;;;;;;;129.70;31.35;;;;;;;26.70;50.99;100444.38;5041538;28;20029;-74
2021/09/09 07:14:13;;;;;;;91.45;29.33;;;;;;;26.61;51.45;100438.56;5059266;28;20462;-74
2021/09/09 07:16:38;;;;;;;95.65;28.55;;;;;;;26.54;51.73;100433.09;5059933;28;20059;-74
2021/09/09 07:19:04;;;;;;;95.63;30.40;;;;;;;26.53;52.02;100445.53;5059632;28;20040;-74
2021/09/09 07:21:30;;;;;;;100.78;30.15;;;;;;;26.65;51.76;100441.28;5058331;28;20032;-74
2021/09/09 07:23:55;;;;;;;112.60;31.13;;;;;;;26.61;51.90;100434.97;5066304;28;20024;-74
2021/09/09 07:26:21;;;;;;;83.47;35.78;;;;;;;26.75;51.94;100434.66;5075248;28;20036;-74
2021/09/09 07:28:46;;;;;;;97.97;33.25;;;;;;;26.76;51.84;100427.88;5074539;28;20052;-74
2021/09/09 07:31:12;;;;;;;99.30;32.95;;;;;;;26.88;51.38;100432.81;5074377;28;20024;-74
2021/09/09 07:33:38;;;;;;;76.40;30.55;;;;;;;26.97;51.49;100432.22;5071441;28;20052;-74
2021/09/09 07:36:07;;;;;;;67.55;29.35;;;;;;;26.94;51.52;100436.69;5058487;28;20083;-74
2021/09/09 07:38:34;;;;;;;74.43;32.47;;;;;;;27.08;51.18;100432.84;5057685;28;20490;-74
2021/09/09 07:41:00;;;;;;;73.70;29.40;;;;;;;27.15;51.08;100429.88;5057587;28;20047;-74
2021/09/09 07:43:25;;;;;;;64.22;28.90;;;;;;;27.06;51.44;100426.88;5058185;28;20055;-74
2021/09/09 07:45:51;;;;;;;65.10;31.38;;;;;;;27.07;51.52;100422.84;5057772;28;20052;-74
2021/09/09 07:48:17;;;;;;;77.20;36.80;;;;;;;27.17;51.39;100432.25;5059142;28;20025;-75
2021/09/09 07:50:44;;;;;;;75.65;33.83;;;;;;;27.24;51.15;100432.09;5059658;28;20021;-74
2021/09/09 07:53:10;;;;;;;62.55;33.50;;;;;;;27.26;51.35;100432.44;5058269;28;21105;-74
2021/09/09 07:55:36;;;;;;;77.13;37.28;;;;;;;27.28;51.54;100421.56;5059094;28;20021;-74
2021/09/09 07:58:01;;;;;;;73.50;36.25;;;;;;;27.37;51.35;100422.56;5066425;28;20070;-74
2021/09/09 08:00:27;;;;;;;81.20;37.00;;;;;;;27.33;52.03;100433.06;5073318;28;20047;-74
2021/09/09 08:02:52;;;;;;;76.95;35.53;;;;;;;27.42;51.54;100431.66;5073704;28;20111;-74
2021/09/09 08:05:18;;;;;;;79.00;37.25;;;;;;;27.42;51.76;100431.66;5074806;28;20021;-74
2021/09/09 08:07:46;;;;;;;67.40;33.53;;;;;;;27.60;51.51;100426.44;5074640;28;20489;-74
2021/09/09 08:10:14;;;;;;;73.50;34.38;;;;;;;27.62;51.36;100430.38;5056889;28;20028;-73
2021/09/09 08:12:40;;;;;;;62.67;35.25;;;;;;;27.62;51.63;100430.38;5074578;28;20020;-74
2021/09/09 08:15:07;;;;;;;52.80;31.05;;;;;;;27.69;51.51;100426.66;5074537;28;20032;-74
2021/09/09 08:17:33;;;;;;;59.75;32.17;;;;;;;27.77;51.23;100425.25;5074711;28;20025;-74
2021/09/09 08:19:59;;;;;;;59.97;32.42;;;;;;;27.82;51.25;100435.16;5074462;28;20034;-73
2021/09/09 08:22:26;;;;;;;48.67;27.75;;;;;;;27.66;51.97;100435.94;5074643;28;20415;-74
2021/09/09 08:24:55;;;;;;;48.15;28.10;;;;;;;27.82;51.26;100440.78;5074109;28;20021;-74
2021/09/09 08:27:22;;;;;;;46.90;33.97;;;;;;;27.76;51.32;100434.13;5074456;28;20028;-74
2021/09/09 08:29:48;;;;;;;40.60;23.67;;;;;;;27.95;51.15;100435.25;5072806;28;20424;-74
2021/09/09 08:32:13;;;;;;;38.95;24.98;;;;;;;27.96;51.01;100437.59;5074184;28;20055;-73
2021/09/09 08:34:39;;;;;;;34.95;25.13;;;;;;;27.99;50.91;100436.75;5074303;28;20064;-73
2021/09/09 08:37:05;;;;;;;34.30;20.42;;;;;;;28.04;50.80;100436.22;5074206;28;20036;-73
2021/09/09 08:39:30;;;;;;;37.08;22.35;;;;;;;28.09;50.51;100435.66;5074016;28;20052;-74
2021/09/09 08:41:56;;;;;;;37.25;22.50;;;;;;;28.12;50.59;100434.81;5074110;28;20085;-74
2021/09/09 08:44:22;;;;;;;36.88;23.13;;;;;;;28.13;50.54;100435.59;5074068;28;20039;-73
2021/09/09 08:46:51;;;;;;;38.58;22.95;;;;;;;28.16;50.28;100429.88;5073991;28;20036;-74
2021/09/09 08:49:24;;;;;;;34.70;22.38;;;;;;;28.23;50.59;100428.88;5074074;28;20464;-73
2021/09/09 08:51:50;;;;;;;36.17;22.60;;;;;;;28.23;50.41;100440.13;5073871;28;20028;-73
2021/09/09 08:54:16;;;;;;;39.90;22.88;;;;;;;28.35;50.08;100438.66;5073797;28;20035;-73
2021/09/09 08:56:42;;;;;;;37.30;23.27;;;;;;;28.38;50.37;100434.94;5073535;28;20379;-74
2021/09/09 08:59:07;;;;;;;34.22;21.98;;;;;;;28.51;50.26;100429.41;5072008;28;20020;-73
2021/09/09 09:01:33;;;;;;;35.22;22.48;;;;;;;28.54;50.17;100434.91;5073418;28;20127;-73
2021/09/09 09:04:01;;;;;;;36.63;23.65;;;;;;;28.69;49.93;100435.28;5073689;28;20578;-74
2021/09/09 09:06:32;;;;;;;37.45;23.40;;;;;;;28.74;49.64;100440.38;5055658;28;20569;-73
2021/09/09 09:09:10;;;;;;;45.08;24.52;;;;;;;28.71;49.49;100436.41;5073611;28;20021;-74
2021/09/09 09:11:44;;;;;;;29.17;20.38;;;;;;;28.80;49.50;100440.63;5073594;28;20498;-73
2021/09/09 09:14:12;;;;;;;32.85;20.95;;;;;;;28.87;49.52;100443.22;5073446;28;20041;-73
2021/09/09 09:16:47;;;;;;;32.45;20.63;;;;;;;28.93;48.83;100441.47;5073319;28;20032;-73
2021/09/09 09:19:14;;;;;;;29.33;20.40;;;;;;;29.04;49.13;100444.78;5073376;28;20589;-73
2021/09/09 09:21:44;;;;;;;25.83;18.30;;;;;;;29.08;48.92;100442.63;5073377;28;20365;-74
2021/09/09 09:24:19;;;;;;;34.10;21.20;;;;;;;29.08;48.79;100448.25;5073295;28;20487;-74
2021/09/09 09:27:14;;;;;;;40.75;24.52;;;;;;;29.00;48.75;100447.66;5072867;28;20036;-74
2021/09/09 09:29:42;;;;;;;43.45;24.80;;;;;;;29.08;48.58;100441.84;5071654;28;20059;-73
2021/09/09 09:32:18;;;;;;;22.30;17.20;;;;;;;29.22;48.18;100447.81;5073124;28;20063;-74
2021/09/09 09:34:45;;;;;;;29.90;17.02;;;;;;;29.20;47.94;100443.88;5072989;28;20111;-73
2021/09/09 09:37:18;;;;;;;26.20;17.45;;;;;;;29.16;48.14;100443.97;5073004;28;20422;-73
2021/09/09 09:39:45;;;;;;;26.45;16.45;;;;;;;29.16;48.03;100438.34;5072792;28;20048;-74
2021/09/09 09:42:11;;;;;;;38.90;18.67;;;;;;;29.19;48.37;100442.31;5072744;28;20394;-73
2021/09/09 09:44:38;;;;;;;28.58;16.77;;;;;;;29.20;48.17;100449.50;5072765;28;20115;-74
2021/09/09 09:47:15;;;;;;;20.05;14.38;;;;;;;29.23;48.04;100449.41;5054673;28;20123;-76
2021/09/09 09:49:49;;;;;;;35.30;16.50;;;;;;;29.38;47.78;100448.97;5073025;28;20417;-73
2021/09/09 09:52:19;;;;;;;47.40;16.10;;;;;;;29.36;48.04;100451.44;5072824;28;20103;-73
2021/09/09 09:54:53;;;;;;;23.27;13.15;;;;;;;29.36;47.80;100448.63;5054760;28;20166;-73
2021/09/09 09:57:20;;;;;;;13.32;9.27;;;;;;;29.29;48.30;100447.59;5072896;28;20028;-73
2021/09/09 09:59:46;;;;;;;7.45;6.70;;;;;;;29.32;47.80;100445.13;5071231;28;20056;-73
2021/09/09 10:02:11;;;;;;;9.65;7.15;;;;;;;29.21;47.79;100451.09;5072794;28;20382;-73
2021/09/09 10:04:44;;;;;;;8.60;6.72;;;;;;;29.25;47.24;100452.56;5072070;28;20079;-74
2021/09/09 10:07:11;;;;;;;18.08;8.32;;;;;;;29.23;47.39;100454.22;5072431;28;20024;-74
2021/09/09 10:09:38;;;;;;;11.18;7.65;;;;;;;29.34;47.27;100451.13;5072194;28;20028;-74
2021/09/09 10:12:06;;;;;;;17.90;8.73;;;;;;;29.34;47.37;100451.91;5072636;28;20036;-74
2021/09/09 10:14:33;;;;;;;11.93;7.28;;;;;;;29.36;47.54;100445.81;5072209;28;20115;-74
2021/09/09 10:17:00;;;;;;;14.75;8.13;;;;;;;29.31;47.10;100449.97;5072457;28;20067;-74
2021/09/09 10:19:33;;;;;;;60.25;13.60;;;;;;;29.36;46.98;100451.44;5072464;28;20013;-74
2021/09/09 10:22:14;;;;;;;20.63;7.47;;;;;;;29.42;46.85;100455.28;5072543;28;20028;-73
2021/09/09 10:24:42;;;;;;;25.67;9.55;;;;;;;29.65;45.95;100452.16;5071991;28;20016;-74
2021/09/09 10:27:19;;;;;;;12.63;6.18;;;;;;;29.55;46.39;100453.28;5071763;28;20024;-74
2021/09/09 10:29:49;;;;;;;5.60;4.72;;;;;;;29.59;46.26;100451.13;5062709;28;20017;-74
2021/09/09 10:32:29;;;;;;;16.80;6.85;;;;;;;29.65;46.23;100454.97;5071452;28;20025;-74
2021/09/09 10:35:22;;;;;;;27.35;7.50;;;;;;;29.76;45.86;100446.16;5072100;28;20490;-74
2021/09/09 10:37:48;;;;;;;22.52;6.28;;;;;;;29.73;45.80;100450.69;5071901;28;20048;-74
2021/09/09 10:40:35;;;;;;;14.82;6.40;;;;;;;29.81;45.48;100443.56;5071759;28;20041;-74
2021/09/09 10:43:04;;;;;;;18.30;7.60;;;;;;;29.77;45.36;100442.09;5072008;28;20399;-74
2021/09/09 10:45:38;;;;;;;7.05;5.38;;;;;;;29.98;44.85;100430.13;5072162;28;20024;-75
2021/09/09 10:48:09;;;;;;;22.77;7.10;;;;;;;30.05;45.13;100426.28;5054149;28;20029;-73
2021/09/09 10:50:37;;;;;;;70.70;13.00;;;;;;;30.14;45.02;100425.63;5071878;28;20055;-75
2021/09/09 10:53:13;;;;;;;12.50;5.35;;;;;;;30.02;45.22;100427.22;5071907;28;20029;-74
2021/09/09 10:55:44;;;;;;;29.08;7.25;;;;;;;30.22;45.03;100438.22;5072023;28;20025;-74
2021/09/09 10:58:12;;;;;;;14.65;5.90;;;;;;;30.15;45.21;100427.97;5071817;28;20055;-74
2021/09/09 11:00:50;;;;;;;29.73;6.60;;;;;;;30.05;44.65;100423.47;5070920;28;20029;-74
2021/09/09 11:03:38;;;;;;;46.08;9.50;;;;;;;30.10;44.56;100420.13;5071386;28;20037;-75
2021/09/09 11:06:14;;;;;;;35.10;8.13;;;;;;;30.22;44.40;100432.59;5071901;28;20112;-74
2021/09/09 11:08:42;;;;;;;16.05;6.75;;;;;;;30.09;45.05;100422.16;5054100;28;20070;-74